createdAt,value
2018-10-18T00:15:16.477Z,11.23
2018-10-18T00:17:47.056Z,11.33
2018-10-18T00:20:16.657Z,11.33
2018-10-18T00:22:45.763Z,11.97
2018-10-18T00:25:15.264Z,12.83
2018-10-18T00:27:43.896Z,12.63
2018-10-18T00:30:13.778Z,12.00
2018-10-18T00:32:43.096Z,12.00
2018-10-18T00:35:11.963Z,13.20
2018-10-18T00:37:41.041Z,12.23
2018-10-18T00:40:11.241Z,13.30
2018-10-18T00:42:40.063Z,13.67
2018-10-18T00:45:09.741Z,12.83
2018-10-18T00:47:38.414Z,12.67
2018-10-18T00:50:09.148Z,12.50
2018-10-18T00:52:37.700Z,11.67
2018-10-18T00:55:07.429Z,13.10
2018-10-18T00:57:36.010Z,13.70
2018-10-18T01:00:16.337Z,13.40
2018-10-18T01:02:48.928Z,15.60
2018-10-18T01:05:17.623Z,14.07
2018-10-18T01:07:46.173Z,13.30
2018-10-18T01:10:14.806Z,13.87
2018-10-18T01:12:43.477Z,14.07
2018-10-18T01:15:11.921Z,14.07
2018-10-18T01:17:41.253Z,14.23
2018-10-18T01:20:09.816Z,14.60
2018-10-18T01:22:38.351Z,13.60
2018-10-18T01:25:07.084Z,14.77
2018-10-18T01:27:35.701Z,14.50
2018-10-18T01:30:06.022Z,14.33
2018-10-18T01:32:34.654Z,13.87
2018-10-18T01:35:03.733Z,15.13
2018-10-18T01:37:32.344Z,15.17
2018-10-18T01:40:00.923Z,16.87
2018-10-18T01:42:29.517Z,17.83
2018-10-18T01:44:58.748Z,16.80
2018-10-18T01:47:27.329Z,16.17
2018-10-18T01:49:55.926Z,15.37
2018-10-18T01:52:24.523Z,14.20
2018-10-18T01:54:53.078Z,14.23
2018-10-18T01:57:21.688Z,15.67
2018-10-18T01:59:50.259Z,16.70
2018-10-18T02:02:22.127Z,16.00
2018-10-18T02:04:52.406Z,16.37
2018-10-18T02:07:23.360Z,16.07
2018-10-18T02:09:52.553Z,15.47
2018-10-18T02:12:21.111Z,15.93
2018-10-18T02:14:49.675Z,16.07
2018-10-18T02:17:18.236Z,15.93
2018-10-18T02:22:31.243Z,17.43
2018-10-18T02:25:00.004Z,17.70
2018-10-18T02:27:28.573Z,16.47
2018-10-18T02:29:58.093Z,16.07
2018-10-18T02:32:28.686Z,14.77
2018-10-18T02:34:57.351Z,17.13
2018-10-18T02:37:25.889Z,17.07
2018-10-18T02:39:54.441Z,15.93
2018-10-18T02:42:22.966Z,16.00
2018-10-18T02:44:51.508Z,15.60
2018-10-18T02:47:20.083Z,15.87
2018-10-18T02:49:48.638Z,17.03
2018-10-18T02:52:17.194Z,18.33
2018-10-18T02:54:45.726Z,16.53
2018-10-18T02:57:14.324Z,15.27
2018-10-18T02:59:43.476Z,15.93
2018-10-18T03:02:12.024Z,16.50
2018-10-18T03:04:44.846Z,18.77
2018-10-18T03:07:20.539Z,16.77
2018-10-18T03:09:54.484Z,16.83
2018-10-18T03:12:27.202Z,17.27
2018-10-18T03:28:13.347Z,17.47
2018-10-18T03:30:45.470Z,17.87
2018-10-18T03:33:14.232Z,18.83
2018-10-18T03:35:42.803Z,19.23
2018-10-18T03:38:11.382Z,19.53
2018-10-18T03:40:39.930Z,19.33
2018-10-18T03:43:08.507Z,21.87
2018-10-18T03:45:37.152Z,21.43
2018-10-18T03:48:05.866Z,21.83
2018-10-18T03:50:34.369Z,21.37
2018-10-18T03:53:02.991Z,21.47
2018-10-18T03:55:31.544Z,21.13
2018-10-18T03:58:00.129Z,23.00
2018-10-18T04:00:28.712Z,21.43
2018-10-18T04:02:57.577Z,23.40
2018-10-18T04:05:26.136Z,23.37
2018-10-18T04:07:54.728Z,22.10
2018-10-18T04:10:23.283Z,22.50
2018-10-18T04:12:51.913Z,25.30
2018-10-18T04:15:20.452Z,25.27
2018-10-18T04:17:49.107Z,23.70
2018-10-18T04:20:17.649Z,23.37
2018-10-18T04:22:46.275Z,23.47
2018-10-18T04:25:14.883Z,22.23
2018-10-18T04:27:43.482Z,21.20
2018-10-18T04:30:12.081Z,21.13
2018-10-18T04:32:40.680Z,22.57
2018-10-18T04:35:09.789Z,22.57
2018-10-18T04:37:38.368Z,21.17
2018-10-18T04:40:07.014Z,22.10
2018-10-18T04:42:35.584Z,20.97
2018-10-18T04:45:05.356Z,20.13
2018-10-18T04:47:33.959Z,20.17
2018-10-18T04:50:02.472Z,17.97
2018-10-18T04:52:31.049Z,19.97
2018-10-18T04:55:00.332Z,20.73
2018-10-18T04:57:28.936Z,20.13
2018-10-18T04:59:57.518Z,19.00
2018-10-18T05:02:26.132Z,17.50
2018-10-18T05:05:11.539Z,16.87
2018-10-18T05:07:40.141Z,15.67
2018-10-18T05:10:08.786Z,16.50
2018-10-18T05:12:38.493Z,18.03
2018-10-18T05:15:09.028Z,20.90
2018-10-18T05:17:37.663Z,19.77
2018-10-18T05:20:06.736Z,19.93
2018-10-18T05:22:35.380Z,19.23
2018-10-18T05:25:04.177Z,17.67
2018-10-18T05:27:32.741Z,18.90
2018-10-18T05:30:01.366Z,19.33
2018-10-18T05:32:29.981Z,24.87
2018-10-18T05:34:58.644Z,20.97
2018-10-18T05:37:27.289Z,27.23
2018-10-18T05:39:55.861Z,27.17
2018-10-18T05:42:24.471Z,23.77
2018-10-18T05:44:54.031Z,26.83
2018-10-18T05:47:22.690Z,32.70
2018-10-18T05:49:51.516Z,30.10
2018-10-18T05:52:20.176Z,20.37
2018-10-18T05:54:48.845Z,20.97
2018-10-18T05:57:17.516Z,23.00
2018-10-18T05:59:47.134Z,24.43
2018-10-18T06:02:15.733Z,23.47
2018-10-18T06:04:44.656Z,22.37
2018-10-18T06:07:13.354Z,19.37
2018-10-18T06:09:41.973Z,19.50
2018-10-18T06:12:10.599Z,18.90
2018-10-18T06:14:39.290Z,18.13
2018-10-18T06:17:08.020Z,17.03
2018-10-18T06:19:36.726Z,18.00
2018-10-18T06:22:05.611Z,17.33
2018-10-18T06:24:34.231Z,16.20
2018-10-18T06:27:02.896Z,14.97
2018-10-18T06:29:31.499Z,15.23
2018-10-18T06:32:00.128Z,13.67
2018-10-18T06:34:28.754Z,14.13
2018-10-18T06:36:57.438Z,14.40
2018-10-18T06:39:26.192Z,12.60
2018-10-18T06:41:54.699Z,13.13
2018-10-18T06:44:23.381Z,12.67
2018-10-18T06:46:52.167Z,12.83
2018-10-18T06:49:20.806Z,12.20
2018-10-18T06:51:49.381Z,12.33
2018-10-18T06:54:18.046Z,11.97
2018-10-18T06:56:46.689Z,12.03
2018-10-18T06:59:15.857Z,12.97
2018-10-18T07:01:44.548Z,12.13
2018-10-18T07:04:13.208Z,12.13
2018-10-18T07:06:41.855Z,11.13
2018-10-18T07:09:10.997Z,11.30
2018-10-18T07:11:39.618Z,12.20
2018-10-18T07:14:08.323Z,11.25
2018-10-18T07:16:37.157Z,11.68
2018-10-18T07:19:05.783Z,11.83
2018-10-18T07:21:34.401Z,11.97
2018-10-18T07:24:03.112Z,11.80
2018-10-18T07:26:31.736Z,10.70
2018-10-18T07:29:00.376Z,10.90
2018-10-18T07:31:29.253Z,11.25
2018-10-18T07:33:57.885Z,11.35
2018-10-18T07:36:45.301Z,11.57
2018-10-18T07:39:14.966Z,10.32
2018-10-18T07:41:43.875Z,10.68
2018-10-18T07:44:12.676Z,11.50
2018-10-18T07:46:41.393Z,12.70
2018-10-18T07:49:10.049Z,12.28
2018-10-18T07:51:38.698Z,11.40
2018-10-18T07:54:07.334Z,11.57
2018-10-18T07:56:35.976Z,11.18
2018-10-18T07:59:04.809Z,11.15
2018-10-18T08:01:33.394Z,10.98
2018-10-18T08:04:02.011Z,10.30
2018-10-18T08:06:30.661Z,10.50
2018-10-18T08:08:59.262Z,10.20
2018-10-18T08:11:27.977Z,10.28
2018-10-18T08:13:56.603Z,10.00
2018-10-18T08:16:25.271Z,10.88
2018-10-18T08:18:53.965Z,10.45
2018-10-18T08:21:22.564Z,9.98
2018-10-18T08:23:51.171Z,9.75
2018-10-18T08:26:19.829Z,10.53
2018-10-18T08:28:48.425Z,10.28
2018-10-18T08:31:17.165Z,10.35
2018-10-18T08:33:45.784Z,9.90
2018-10-18T08:36:14.411Z,9.70
2018-10-18T08:38:43.024Z,9.75
2018-10-18T08:41:11.659Z,9.53
2018-10-18T08:43:40.338Z,9.43
2018-10-18T08:46:08.921Z,8.73
2018-10-18T08:48:37.584Z,9.78
2018-10-18T08:51:06.221Z,9.50
2018-10-18T08:53:34.816Z,8.90
2018-10-18T08:56:03.793Z,9.15
2018-10-18T08:58:32.385Z,9.03
2018-10-18T09:01:01.048Z,8.70
2018-10-18T09:03:29.711Z,9.88
2018-10-18T09:05:58.356Z,9.38
2018-10-18T09:08:26.968Z,8.80
2018-10-18T09:10:55.636Z,9.43
2018-10-18T09:13:24.256Z,9.30
2018-10-18T09:15:52.893Z,7.72
2018-10-18T09:18:21.500Z,6.65
2018-10-18T09:20:50.159Z,6.95
2018-10-18T09:23:18.793Z,8.30
2018-10-18T09:25:47.388Z,8.28
2018-10-18T09:28:16.055Z,8.23
2018-10-18T09:30:44.781Z,7.50
2018-10-18T09:33:13.493Z,8.08
2018-10-18T09:35:42.128Z,8.50
2018-10-18T09:38:10.791Z,7.78
2018-10-18T09:40:39.488Z,6.45
2018-10-18T09:43:08.202Z,8.10
2018-10-18T09:45:36.783Z,6.30
2018-10-18T09:48:05.458Z,6.53
2018-10-18T09:50:34.133Z,6.33
2018-10-18T09:53:02.809Z,5.95
2018-10-18T09:55:31.544Z,5.92
2018-10-18T09:58:00.159Z,6.70
2018-10-18T10:00:34.341Z,7.35
2018-10-18T10:03:08.548Z,7.67
2018-10-18T10:05:37.163Z,6.83
2018-10-18T10:08:06.371Z,5.97
2018-10-18T10:10:35.427Z,6.25
2018-10-18T10:13:04.134Z,6.10
2018-10-18T10:15:33.010Z,5.90
2018-10-18T10:18:01.988Z,6.10
2018-10-18T10:20:30.478Z,7.00
2018-10-18T10:22:59.123Z,6.42
2018-10-18T10:25:28.077Z,6.05
2018-10-18T10:28:02.231Z,6.08
2018-10-18T10:30:36.258Z,5.92
2018-10-18T10:33:05.235Z,6.08
2018-10-18T10:35:33.829Z,7.90
2018-10-18T10:38:02.539Z,5.70
2018-10-18T10:40:31.275Z,5.62
2018-10-18T10:42:59.989Z,6.12
2018-10-18T10:45:28.638Z,5.80
2018-10-18T10:47:57.374Z,6.05
2018-10-18T10:50:31.578Z,5.55
2018-10-18T10:53:00.246Z,5.70
2018-10-18T10:55:28.876Z,6.17
2018-10-18T10:57:59.242Z,6.97
2018-10-18T11:01:13.886Z,6.08
2018-10-18T11:03:42.946Z,6.42
2018-10-18T11:06:11.974Z,5.87
2018-10-18T11:08:40.804Z,6.03
2018-10-18T11:11:10.196Z,5.22
2018-10-18T11:13:38.865Z,5.35
2018-10-18T11:16:07.817Z,5.15
2018-10-18T11:18:37.320Z,5.12
2018-10-18T11:21:07.121Z,5.28
2018-10-18T11:23:35.908Z,4.97
2018-10-18T11:26:04.672Z,5.00
2018-10-18T11:28:33.423Z,4.67
2018-10-18T11:31:02.139Z,4.83
2018-10-18T11:33:30.921Z,4.72
2018-10-18T11:35:59.603Z,4.70
2018-10-18T11:38:28.296Z,4.90
2018-10-18T11:40:56.937Z,4.90
2018-10-18T11:43:25.589Z,4.80
2018-10-18T11:45:54.256Z,4.62
2018-10-18T11:48:22.932Z,5.17
2018-10-18T11:50:51.654Z,4.55
2018-10-18T11:53:20.310Z,5.10
2018-10-18T11:55:48.963Z,4.58
2018-10-18T11:58:17.632Z,4.92
2018-10-18T12:00:46.361Z,4.90
2018-10-18T12:03:15.096Z,4.47
2018-10-18T12:05:43.742Z,4.12
2018-10-18T12:08:12.487Z,4.60
2018-10-18T12:10:41.215Z,5.33
2018-10-18T12:13:09.890Z,5.00
2018-10-18T12:15:38.639Z,5.00
2018-10-18T12:18:07.296Z,5.10
2018-10-18T12:20:35.996Z,4.90
2018-10-18T12:23:04.877Z,5.10
2018-10-18T12:25:33.518Z,4.78
2018-10-18T12:28:02.430Z,4.83
2018-10-18T12:30:31.607Z,4.30
2018-10-18T12:33:00.305Z,4.83
2018-10-18T12:35:29.043Z,4.70
2018-10-18T12:37:57.710Z,4.90
2018-10-18T12:40:26.457Z,4.53
2018-10-18T12:42:55.108Z,4.55
2018-10-18T12:45:23.816Z,4.87
2018-10-18T12:47:52.524Z,4.05
2018-10-18T12:50:21.199Z,5.60
2018-10-18T12:52:49.921Z,4.67
2018-10-18T12:55:18.573Z,4.80
2018-10-18T12:57:47.241Z,4.47
2018-10-18T13:00:15.969Z,4.40
2018-10-18T13:02:44.623Z,4.42
2018-10-18T13:05:14.256Z,4.42
2018-10-18T13:07:43.001Z,4.40
2018-10-18T13:10:12.505Z,4.03
2018-10-18T13:12:41.435Z,4.22
2018-10-18T13:15:11.158Z,4.70
2018-10-18T13:17:40.051Z,4.25
2018-10-18T13:20:19.840Z,4.60
2018-10-18T13:22:48.464Z,4.80
2018-10-18T13:25:17.214Z,4.40
2018-10-18T13:27:45.811Z,4.47
2018-10-18T13:30:14.563Z,4.72
2018-10-18T13:32:43.226Z,4.92
2018-10-18T13:35:11.949Z,4.55
2018-10-18T13:37:40.673Z,4.10
2018-10-18T13:40:09.386Z,4.50
2018-10-18T13:42:38.104Z,4.12
2018-10-18T13:45:07.346Z,4.80
2018-10-18T13:47:36.237Z,4.35
2018-10-18T13:50:05.808Z,4.35
2018-10-18T13:52:34.861Z,4.55
2018-10-18T13:55:03.574Z,4.00
2018-10-18T13:57:32.305Z,4.70
2018-10-18T14:00:23.859Z,4.22
2018-10-18T14:02:53.164Z,4.00
2018-10-18T14:05:22.274Z,4.45
2018-10-18T14:07:52.063Z,3.60
2018-10-18T14:10:26.669Z,4.35
2018-10-18T14:12:55.321Z,4.58
2018-10-18T14:15:23.953Z,4.22
2018-10-18T14:17:52.616Z,4.08
2018-10-18T14:20:21.381Z,4.35
2018-10-18T14:22:49.894Z,4.17
2018-10-18T14:25:18.701Z,4.40
2018-10-18T14:27:47.331Z,4.45
2018-10-18T14:30:16.082Z,3.77
2018-10-18T14:32:44.609Z,3.92
2018-10-18T14:35:13.937Z,4.00
2018-10-18T14:37:42.587Z,4.35
2018-10-18T14:40:12.006Z,4.05
2018-10-18T14:42:40.648Z,4.33
2018-10-18T14:45:09.701Z,4.50
2018-10-18T14:47:38.343Z,4.70
2018-10-18T14:50:10.376Z,4.08
2018-10-18T14:52:38.856Z,4.47
2018-10-18T14:55:07.566Z,4.72
2018-10-18T14:57:36.476Z,4.67
2018-10-18T15:00:07.094Z,4.90
2018-10-18T15:02:35.733Z,4.92
2018-10-18T15:05:04.934Z,4.92
2018-10-18T15:07:39.780Z,4.85
2018-10-18T15:10:11.218Z,4.70
2018-10-18T15:12:40.735Z,4.85
2018-10-18T15:15:11.362Z,5.10
2018-10-18T15:17:40.236Z,5.67
2018-10-18T15:20:10.342Z,5.58
2018-10-18T15:22:39.761Z,5.55
2018-10-18T15:25:09.428Z,5.70
2018-10-18T15:27:38.596Z,5.60
2018-10-18T15:30:08.729Z,5.55
2018-10-18T15:32:38.075Z,5.47
2018-10-18T15:35:08.372Z,5.75
2018-10-18T15:37:37.063Z,5.72
2018-10-18T15:40:06.474Z,6.30
2018-10-18T15:42:35.157Z,5.72
2018-10-18T15:45:04.385Z,6.00
2018-10-18T15:47:33.240Z,6.53
2018-10-18T15:50:01.907Z,6.75
2018-10-18T15:52:30.624Z,6.17
2018-10-18T15:54:59.272Z,6.87
2018-10-18T15:57:27.909Z,6.67
2018-10-18T15:59:56.641Z,13.20
2018-10-18T16:02:25.371Z,7.80
2018-10-18T16:04:54.055Z,7.20
2018-10-18T16:07:22.701Z,8.70
2018-10-18T16:09:51.369Z,7.40
2018-10-18T16:12:20.093Z,7.80
2018-10-18T16:14:48.768Z,7.33
2018-10-18T16:17:17.540Z,7.90
2018-10-18T16:19:46.189Z,7.53
2018-10-18T16:22:14.977Z,8.20
2018-10-18T16:24:43.631Z,7.70
2018-10-18T16:27:12.294Z,6.95
2018-10-18T16:29:41.025Z,7.07
2018-10-18T16:32:09.772Z,7.75
2018-10-18T16:34:38.976Z,7.80
2018-10-18T16:37:07.669Z,7.40
2018-10-18T16:39:36.309Z,8.47
2018-10-18T16:42:05.198Z,7.30
2018-10-18T16:44:33.807Z,7.83
2018-10-18T16:47:02.482Z,7.70
2018-10-18T16:49:31.526Z,7.63
2018-10-18T16:52:00.257Z,7.13
2018-10-18T16:54:28.914Z,7.10
2018-10-18T16:56:57.564Z,7.83
2018-10-18T16:59:26.614Z,7.93
2018-10-18T17:01:55.350Z,8.73
2018-10-18T17:04:24.094Z,6.73
2018-10-18T17:06:52.643Z,9.80
2018-10-18T17:09:21.299Z,7.40
2018-10-18T17:11:49.943Z,6.80
2018-10-18T17:14:18.710Z,7.50
2018-10-18T17:16:47.251Z,7.17
2018-10-18T17:19:15.916Z,8.33
2018-10-18T17:21:44.578Z,8.30
2018-10-18T17:24:13.449Z,7.13
2018-10-18T17:26:42.009Z,8.47
2018-10-18T17:29:10.607Z,7.70
2018-10-18T17:31:39.253Z,7.67
2018-10-18T17:34:07.973Z,7.70
2018-10-18T17:36:37.785Z,8.10
2018-10-18T17:39:09.293Z,7.50
2018-10-18T17:41:38.064Z,8.40
2018-10-18T17:44:07.814Z,8.63
2018-10-18T17:46:36.417Z,8.20
2018-10-18T17:49:05.477Z,9.80
2018-10-18T17:51:34.151Z,8.53
2018-10-18T17:54:02.884Z,7.70
2018-10-18T17:56:31.567Z,8.70
2018-10-18T17:59:00.207Z,9.20
2018-10-18T18:01:28.865Z,8.80
2018-10-18T18:03:57.637Z,9.00
2018-10-18T18:06:26.701Z,8.87
2018-10-18T18:08:55.204Z,8.97
2018-10-18T18:11:24.012Z,9.13
2018-10-18T18:13:52.671Z,9.50
2018-10-18T18:16:21.337Z,9.13
2018-10-18T18:18:50.017Z,11.87
2018-10-18T18:21:24.332Z,18.67
2018-10-18T18:23:53.897Z,9.60
2018-10-18T18:26:32.447Z,9.83
2018-10-18T18:28:57.277Z,9.53
2018-10-18T18:31:25.924Z,10.27
2018-10-18T18:33:54.464Z,11.37
2018-10-18T18:36:23.069Z,10.43
2018-10-18T18:38:57.557Z,10.70
2018-10-18T18:41:26.477Z,10.30
2018-10-18T18:43:55.092Z,11.07
2018-10-18T18:46:24.029Z,11.30
2018-10-18T18:48:53.637Z,10.40
2018-10-18T18:51:27.861Z,11.07
2018-10-18T18:53:56.439Z,11.00
2018-10-18T18:56:26.271Z,11.17
2018-10-18T18:58:55.678Z,12.17
2018-10-18T19:01:26.657Z,11.07
2018-10-18T19:03:58.118Z,12.00
2018-10-18T19:06:27.418Z,11.63
2018-10-18T19:08:57.883Z,11.60
2018-10-18T19:11:26.531Z,12.13
2018-10-18T19:13:58.344Z,12.20
2018-10-18T19:16:27.273Z,12.00
2018-10-18T19:18:57.506Z,12.13
2018-10-18T19:21:27.471Z,11.90
2018-10-18T19:23:57.003Z,12.07
2018-10-18T19:26:26.204Z,12.57
2018-10-18T19:28:56.429Z,12.13
2018-10-18T19:31:25.967Z,12.73
2018-10-18T19:33:55.567Z,12.13
2018-10-18T19:36:24.984Z,12.90
2018-10-18T19:38:54.299Z,13.33
2018-10-18T19:41:25.371Z,13.23
2018-10-18T19:44:05.967Z,13.40
2018-10-18T19:46:37.396Z,13.47
2018-10-18T19:49:08.867Z,14.33
2018-10-18T19:51:39.213Z,13.90
2018-10-18T19:54:18.116Z,13.97
2018-10-18T19:56:51.156Z,14.00
2018-10-18T19:59:24.573Z,13.43
2018-10-18T20:01:56.035Z,13.70
2018-10-18T20:04:26.371Z,13.70
2018-10-18T20:06:56.984Z,14.10
2018-10-18T20:09:31.633Z,13.27
2018-10-18T20:12:02.098Z,13.47
2018-10-18T20:14:33.204Z,14.67
2018-10-18T20:17:02.033Z,13.77
2018-10-18T20:19:31.552Z,14.17
2018-10-18T20:22:00.784Z,14.30
2018-10-18T20:24:29.542Z,14.30
2018-10-18T20:27:00.996Z,14.57
2018-10-18T20:29:29.924Z,14.63
2018-10-18T20:31:59.015Z,14.50
2018-10-18T20:34:28.561Z,14.10
2018-10-18T20:36:57.158Z,14.03
2018-10-18T20:39:25.831Z,14.80
2018-10-18T20:41:54.424Z,15.03
2018-10-18T20:44:23.059Z,14.53
2018-10-18T20:46:51.727Z,14.30
2018-10-18T20:49:20.321Z,14.70
2018-10-18T20:51:48.943Z,14.73
2018-10-18T20:54:18.042Z,14.73
2018-10-18T20:56:48.059Z,15.53
2018-10-18T20:59:16.681Z,14.70
2018-10-18T21:01:45.710Z,15.80
2018-10-18T21:04:14.365Z,15.30
2018-10-18T21:06:43.185Z,15.83
2018-10-18T21:09:11.655Z,15.90
2018-10-18T21:11:45.790Z,15.80
2018-10-18T21:14:19.772Z,16.60
2018-10-18T21:16:48.904Z,17.20
2018-10-18T21:19:17.518Z,18.40
2018-10-18T21:21:46.138Z,18.50
2018-10-18T21:24:14.824Z,17.23
2018-10-18T21:26:43.439Z,19.20
2018-10-18T21:29:12.103Z,18.90
2018-10-18T21:31:41.797Z,20.77
2018-10-18T21:34:10.410Z,19.90
2018-10-18T21:36:38.980Z,19.40
2018-10-18T21:39:07.728Z,19.17
2018-10-18T21:41:38.121Z,20.30
2018-10-18T21:44:06.723Z,19.97
2018-10-18T21:46:35.276Z,20.37
2018-10-18T21:49:03.866Z,19.50
2018-10-18T21:51:32.434Z,20.30
2018-10-18T21:54:00.973Z,20.10
2018-10-18T21:56:29.531Z,19.37
2018-10-18T21:58:58.095Z,19.47
2018-10-18T22:01:26.711Z,19.77
2018-10-18T22:03:55.263Z,18.93
2018-10-18T22:06:24.526Z,20.63
2018-10-18T22:08:53.716Z,19.77
2018-10-18T22:11:22.280Z,20.03
2018-10-18T22:13:50.808Z,20.60
2018-10-18T22:16:25.086Z,20.40
2018-10-18T22:18:53.666Z,18.97
2018-10-18T22:21:22.277Z,20.40
2018-10-18T22:23:50.884Z,21.13
2018-10-18T22:26:19.637Z,21.47
2018-10-18T22:28:48.314Z,21.27
2018-10-18T22:31:17.074Z,20.80
2018-10-18T22:33:46.424Z,21.60
2018-10-18T22:36:15.221Z,20.57
2018-10-18T22:38:43.967Z,20.80
2018-10-18T22:41:18.170Z,20.90
2018-10-18T22:43:46.729Z,20.97
2018-10-18T22:46:15.416Z,21.20
2018-10-18T22:48:44.042Z,21.23
2018-10-18T22:51:12.695Z,22.03
2018-10-18T22:53:41.244Z,22.87
2018-10-18T22:56:09.841Z,22.80
2018-10-18T22:58:39.894Z,22.53
2018-10-18T23:01:08.589Z,21.83
2018-10-18T23:03:37.188Z,24.70
2018-10-18T23:06:05.916Z,22.93
2018-10-18T23:08:34.518Z,23.33
2018-10-18T23:11:03.135Z,22.93
2018-10-18T23:13:31.724Z,23.60
2018-10-18T23:16:00.334Z,23.10
2018-10-18T23:18:28.985Z,22.43
2018-10-18T23:20:57.653Z,23.80
2018-10-18T23:23:26.245Z,23.83
2018-10-18T23:25:54.853Z,23.30
2018-10-18T23:28:24.061Z,22.90
2018-10-18T23:30:52.716Z,23.23
2018-10-18T23:33:21.456Z,22.60
2018-10-18T23:35:50.069Z,22.00
2018-10-18T23:38:18.699Z,22.17
2018-10-18T23:40:49.864Z,24.57
2018-10-18T23:43:18.459Z,23.13
2018-10-18T23:45:47.171Z,25.03
2018-10-18T23:48:15.769Z,23.10
2018-10-18T23:50:44.380Z,26.33
2018-10-18T23:53:13.034Z,24.93
2018-10-18T23:55:42.222Z,24.40
2018-10-18T23:58:10.804Z,24.50
